createdAt,value
2022-08-02T00:00:47.818Z,16.70
2022-08-02T00:03:15.956Z,16.70
2022-08-02T00:05:53.750Z,16.70
2022-08-02T00:08:22.644Z,16.70
2022-08-02T00:10:51.239Z,16.80
2022-08-02T00:13:19.510Z,16.80
2022-08-02T00:15:49.309Z,16.90
2022-08-02T00:18:17.731Z,16.80
2022-08-02T00:20:46.181Z,16.80
2022-08-02T00:23:14.404Z,17.00
2022-08-02T00:25:54.876Z,16.90
2022-08-02T00:28:27.591Z,16.80
2022-08-02T00:30:58.748Z,16.80
2022-08-02T00:34:05.346Z,16.80
2022-08-02T00:36:16.484Z,16.80
2022-08-02T00:38:45.105Z,16.90
2022-08-02T00:41:15.110Z,16.90
2022-08-02T00:43:43.623Z,16.80
2022-08-02T00:46:14.715Z,16.80
2022-08-02T00:48:43.334Z,16.80
2022-08-02T00:51:11.942Z,16.90
2022-08-02T00:53:40.505Z,16.80
2022-08-02T00:56:08.941Z,16.80
2022-08-02T00:58:37.657Z,16.80
2022-08-02T01:01:05.865Z,16.90
2022-08-02T01:03:35.561Z,16.80
2022-08-02T01:06:11.644Z,16.70
2022-08-02T01:08:40.986Z,16.70
2022-08-02T01:11:09.687Z,16.60
2022-08-02T01:13:38.328Z,16.70
2022-08-02T01:16:12.976Z,16.60
2022-08-02T01:18:48.899Z,16.60
2022-08-02T01:21:47.689Z,16.60
2022-08-02T01:24:25.787Z,16.60
2022-08-02T01:27:01.715Z,16.50
2022-08-02T01:29:36.122Z,16.60
2022-08-02T01:32:10.792Z,16.50
2022-08-02T01:34:43.418Z,16.50
2022-08-02T01:37:23.672Z,16.40
2022-08-02T01:39:58.770Z,16.30
2022-08-02T01:42:28.790Z,16.30
2022-08-02T01:45:00.275Z,16.20
2022-08-02T01:47:32.377Z,16.10
2022-08-02T01:50:01.808Z,16.10
2022-08-02T01:52:33.654Z,16.10
2022-08-02T01:55:05.005Z,16.10
2022-08-02T01:57:41.858Z,16.00
2022-08-02T02:00:13.597Z,16.00
2022-08-02T02:02:44.771Z,16.00
2022-08-02T02:05:17.012Z,15.90
2022-08-02T02:07:46.686Z,15.90
2022-08-02T02:10:18.162Z,15.90
2022-08-02T02:12:49.884Z,15.90
2022-08-02T02:15:19.834Z,15.90
2022-08-02T02:18:13.022Z,15.90
2022-08-02T02:20:40.598Z,15.80
2022-08-02T02:23:08.728Z,15.80
2022-08-02T02:25:41.846Z,15.70
2022-08-02T02:28:19.424Z,15.70
2022-08-02T02:30:50.974Z,15.70
2022-08-02T02:33:20.630Z,15.70
2022-08-02T02:35:52.602Z,15.60
2022-08-02T02:38:23.091Z,15.60
2022-08-02T02:40:51.707Z,15.40
2022-08-02T02:43:21.143Z,15.60
2022-08-02T02:45:51.273Z,15.80
2022-08-02T02:48:19.746Z,15.90
2022-08-02T02:50:49.134Z,15.90
2022-08-02T02:53:20.586Z,16.00
2022-08-02T02:56:02.646Z,16.00
2022-08-02T02:58:32.346Z,16.00
2022-08-02T03:01:55.378Z,16.00
2022-08-02T03:04:21.559Z,15.90
2022-08-02T03:06:49.697Z,15.90
2022-08-02T03:09:18.025Z,15.90
2022-08-02T03:11:47.082Z,15.80
2022-08-02T03:14:15.518Z,15.80
2022-08-02T03:16:47.053Z,15.80
2022-08-02T03:19:16.146Z,15.90
2022-08-02T03:21:44.676Z,16.00
2022-08-02T03:24:13.486Z,15.90
2022-08-02T03:26:42.091Z,15.90
2022-08-02T03:29:11.260Z,16.00
2022-08-02T03:31:42.534Z,16.00
2022-08-02T03:34:12.400Z,16.00
2022-08-02T03:36:43.145Z,16.00
2022-08-02T03:39:13.962Z,15.90
2022-08-02T03:41:44.322Z,15.90
2022-08-02T03:44:13.597Z,15.90
2022-08-02T03:46:44.105Z,15.90
2022-08-02T03:49:16.848Z,16.00
2022-08-02T03:51:45.701Z,15.90
2022-08-02T03:54:14.620Z,16.00
2022-08-02T03:56:43.175Z,16.00
2022-08-02T03:59:12.571Z,16.00
2022-08-02T04:01:41.355Z,16.00
2022-08-02T04:04:09.647Z,16.00
2022-08-02T04:06:39.989Z,16.00
2022-08-02T04:09:09.901Z,16.00
2022-08-02T04:11:38.184Z,16.10
2022-08-02T04:14:09.908Z,16.10
2022-08-02T04:16:44.089Z,16.20
2022-08-02T04:19:16.153Z,16.20
2022-08-02T04:21:51.893Z,16.20
2022-08-02T04:24:25.057Z,16.20
2022-08-02T04:26:58.056Z,16.30
2022-08-02T04:29:36.345Z,16.30
2022-08-02T04:32:05.857Z,16.20
2022-08-02T04:34:34.620Z,16.30
2022-08-02T04:37:04.220Z,16.30
2022-08-02T04:39:32.710Z,16.30
2022-08-02T04:42:01.008Z,16.40
2022-08-02T04:44:29.114Z,16.40
2022-08-02T04:46:58.256Z,16.40
2022-08-02T04:49:26.624Z,16.50
2022-08-02T04:51:54.918Z,16.50
2022-08-02T04:54:25.894Z,16.50
2022-08-02T04:56:53.980Z,16.50
2022-08-02T04:59:22.363Z,16.50
2022-08-02T05:01:50.576Z,16.60
2022-08-02T05:04:18.672Z,16.70
2022-08-02T05:06:46.891Z,16.70
2022-08-02T05:09:15.180Z,16.80
2022-08-02T05:11:44.660Z,16.90
2022-08-02T05:14:23.220Z,17.00
2022-08-02T05:16:51.418Z,16.90
2022-08-02T05:19:19.698Z,16.90
2022-08-02T05:21:47.909Z,17.10
2022-08-02T05:24:16.027Z,17.10
2022-08-02T05:26:45.786Z,17.20
2022-08-02T05:29:14.174Z,17.20
2022-08-02T05:31:42.297Z,17.20
2022-08-02T05:34:12.110Z,17.10
2022-08-02T05:36:41.314Z,17.20
2022-08-02T05:39:11.464Z,17.10
2022-08-02T05:41:40.793Z,17.20
2022-08-02T05:44:10.309Z,17.10
2022-08-02T05:46:38.578Z,17.20
2022-08-02T05:49:06.684Z,17.40
2022-08-02T05:51:39.309Z,17.30
2022-08-02T05:54:19.487Z,17.40
2022-08-02T05:56:56.806Z,17.40
2022-08-02T05:59:33.523Z,17.50
2022-08-02T06:02:05.823Z,17.50
2022-08-02T06:04:42.614Z,17.40
2022-08-02T06:07:12.546Z,17.40
2022-08-02T06:09:42.441Z,17.50
2022-08-02T06:12:14.282Z,17.70
2022-08-02T06:14:44.871Z,17.90
2022-08-02T06:17:14.887Z,17.70
2022-08-02T06:19:51.104Z,17.90
2022-08-02T06:22:35.645Z,17.90
2022-08-02T06:25:06.419Z,17.90
2022-08-02T06:27:40.918Z,18.00
2022-08-02T06:30:12.223Z,17.80
2022-08-02T06:32:40.902Z,17.90
2022-08-02T06:35:10.016Z,17.80
2022-08-02T06:37:45.952Z,18.00
2022-08-02T06:40:21.248Z,18.10
2022-08-02T06:42:52.888Z,18.00
2022-08-02T06:45:22.914Z,18.20
2022-08-02T06:47:51.262Z,18.40
2022-08-02T06:50:19.613Z,18.40
2022-08-02T06:52:48.081Z,18.70
2022-08-02T06:55:16.795Z,18.90
2022-08-02T06:57:45.161Z,18.80
2022-08-02T07:00:14.263Z,18.80
2022-08-02T07:02:44.089Z,18.90
2022-08-02T07:05:12.267Z,18.90
2022-08-02T07:07:40.579Z,19.00
2022-08-02T07:10:09.778Z,19.20
2022-08-02T07:12:38.022Z,19.30
2022-08-02T07:15:08.412Z,19.40
2022-08-02T07:17:36.847Z,19.50
2022-08-02T07:20:09.797Z,19.70
2022-08-02T07:22:38.106Z,19.60
2022-08-02T07:25:07.026Z,19.60
2022-08-02T07:27:35.773Z,19.40
2022-08-02T07:30:04.560Z,19.60
2022-08-02T07:32:34.025Z,19.90
2022-08-02T07:35:06.555Z,19.90
2022-08-02T07:37:54.743Z,20.00
2022-08-02T07:40:28.062Z,20.10
2022-08-02T07:43:02.995Z,19.90
2022-08-02T07:45:35.831Z,20.00
2022-08-02T07:48:04.698Z,20.10
2022-08-02T07:50:33.029Z,20.10
2022-08-02T07:53:04.709Z,20.50
2022-08-02T07:55:39.106Z,20.50
2022-08-02T07:58:10.911Z,20.30
2022-08-02T08:00:41.066Z,20.50
2022-08-02T08:03:09.163Z,20.50
2022-08-02T08:05:37.532Z,20.70
2022-08-02T08:08:07.704Z,20.90
2022-08-02T08:10:36.088Z,20.80
2022-08-02T08:13:04.339Z,20.80
2022-08-02T08:15:32.506Z,20.90
2022-08-02T08:18:00.744Z,21.40
2022-08-02T08:20:29.017Z,21.40
2022-08-02T08:22:57.222Z,21.20
2022-08-02T08:25:27.118Z,21.60
2022-08-02T08:27:55.574Z,21.80
2022-08-02T08:30:23.927Z,21.70
2022-08-02T08:32:52.206Z,21.80
2022-08-02T08:35:20.576Z,21.80
2022-08-02T08:37:49.283Z,21.70
2022-08-02T08:40:19.304Z,22.20
2022-08-02T08:42:49.495Z,22.10
2022-08-02T08:45:18.162Z,22.20
2022-08-02T08:47:52.379Z,21.80
2022-08-02T08:50:25.420Z,22.30
2022-08-02T08:52:58.441Z,22.40
2022-08-02T08:55:28.730Z,22.30
2022-08-02T08:58:00.389Z,22.30
2022-08-02T09:00:30.619Z,22.40
2022-08-02T09:02:59.213Z,22.40
2022-08-02T09:05:27.417Z,22.80
2022-08-02T09:07:55.691Z,22.50
2022-08-02T09:10:35.131Z,22.50
2022-08-02T09:13:31.271Z,22.70
2022-08-02T09:16:12.347Z,22.90
2022-08-02T09:18:45.524Z,22.70
2022-08-02T09:21:16.086Z,23.00
2022-08-02T09:23:46.658Z,23.00
2022-08-02T09:26:17.141Z,22.90
2022-08-02T09:28:50.216Z,23.00
2022-08-02T09:31:21.064Z,22.90
2022-08-02T09:33:54.061Z,23.00
2022-08-02T09:36:23.070Z,23.20
2022-08-02T09:38:57.561Z,23.30
2022-08-02T09:41:28.013Z,23.80
2022-08-02T09:44:05.450Z,23.80
2022-08-02T09:46:38.218Z,24.20
2022-08-02T09:49:09.381Z,24.30
2022-08-02T09:51:39.736Z,24.00
2022-08-02T09:54:12.042Z,23.70
2022-08-02T09:56:48.285Z,23.10
2022-08-02T09:59:19.338Z,23.30
2022-08-02T10:01:51.160Z,23.40
2022-08-02T10:04:30.015Z,23.90
2022-08-02T10:07:03.743Z,24.20
2022-08-02T10:09:32.554Z,24.80
2022-08-02T10:12:01.831Z,24.90
2022-08-02T10:14:34.975Z,24.90
2022-08-02T10:17:05.003Z,24.80
2022-08-02T10:20:01.328Z,24.90
2022-08-02T10:22:23.855Z,25.10
2022-08-02T10:24:52.790Z,25.20
2022-08-02T10:27:22.318Z,25.60
2022-08-02T10:29:55.808Z,25.70
2022-08-02T10:32:29.707Z,25.40
2022-08-02T10:35:18.876Z,25.20
2022-08-02T10:37:53.892Z,25.60
2022-08-02T10:40:26.937Z,26.00
2022-08-02T10:43:00.543Z,25.60
2022-08-02T10:45:30.886Z,25.40
2022-08-02T10:48:06.162Z,25.20
2022-08-02T10:50:54.015Z,26.00
2022-08-02T10:53:27.286Z,25.80
2022-08-02T10:55:56.691Z,25.40
2022-08-02T10:58:29.389Z,25.50
2022-08-02T11:01:00.453Z,26.10
2022-08-02T11:03:40.807Z,26.60
2022-08-02T11:06:25.045Z,26.90
2022-08-02T11:09:31.745Z,26.60
2022-08-02T11:12:05.868Z,26.10
2022-08-02T11:14:36.408Z,25.90
2022-08-02T11:17:11.037Z,25.70
2022-08-02T11:20:13.086Z,26.40
2022-08-02T11:22:41.656Z,27.50
2022-08-02T11:26:03.367Z,26.80
2022-08-02T11:28:30.832Z,27.30
2022-08-02T11:31:00.309Z,26.90
2022-08-02T11:33:35.970Z,27.10
2022-08-02T11:36:06.596Z,27.30
2022-08-02T11:38:35.040Z,28.20
2022-08-02T11:41:09.683Z,27.40
2022-08-02T11:43:39.745Z,27.60
2022-08-02T11:46:14.429Z,27.10
2022-08-02T11:48:45.189Z,27.60
2022-08-02T11:51:14.730Z,27.40
2022-08-02T11:53:48.227Z,27.50
2022-08-02T11:56:24.892Z,27.50
2022-08-02T11:59:08.325Z,27.00
2022-08-02T12:01:45.501Z,26.70
2022-08-02T12:04:22.878Z,26.50
2022-08-02T12:06:57.011Z,26.30
2022-08-02T12:09:26.475Z,26.80
2022-08-02T12:11:55.214Z,26.40
2022-08-02T12:14:24.294Z,26.40
2022-08-02T12:17:10.443Z,27.10
2022-08-02T12:19:40.547Z,27.20
2022-08-02T12:22:15.431Z,26.50
2022-08-02T12:24:47.578Z,26.50
2022-08-02T12:27:36.985Z,26.00
2022-08-02T12:30:11.274Z,26.60
2022-08-02T12:32:39.829Z,27.40
2022-08-02T12:35:12.382Z,28.00
2022-08-02T12:37:42.366Z,28.70
2022-08-02T12:40:25.399Z,28.80
2022-08-02T12:42:56.547Z,27.80
2022-08-02T12:45:25.687Z,29.90
2022-08-02T12:47:56.589Z,30.00
2022-08-02T12:50:30.090Z,30.20
2022-08-02T12:53:06.325Z,29.90
2022-08-02T12:55:59.758Z,29.70
2022-08-02T12:58:27.019Z,30.00
2022-08-02T13:00:56.817Z,30.00
2022-08-02T13:04:11.363Z,30.80
2022-08-02T13:06:41.972Z,31.40
2022-08-02T13:09:04.352Z,31.60
2022-08-02T13:11:32.715Z,30.80
2022-08-02T13:14:02.383Z,30.80
2022-08-02T13:16:31.622Z,30.50
2022-08-02T13:19:00.215Z,30.60
2022-08-02T13:21:41.266Z,30.00
2022-08-02T13:24:33.103Z,30.00
2022-08-02T13:27:08.080Z,29.40
2022-08-02T13:29:37.277Z,31.40
2022-08-02T13:32:05.546Z,29.30
2022-08-02T13:34:33.677Z,29.60
2022-08-02T13:37:03.990Z,30.00
2022-08-02T13:39:32.168Z,29.70
2022-08-02T13:42:00.379Z,30.00
2022-08-02T13:44:28.674Z,31.40
2022-08-02T13:46:56.888Z,30.10
2022-08-02T13:49:51.541Z,30.10
2022-08-02T13:52:15.498Z,28.80
2022-08-02T13:54:44.165Z,31.70
2022-08-02T13:57:12.341Z,30.50
2022-08-02T13:59:58.523Z,29.30
2022-08-02T14:02:28.746Z,30.60
2022-08-02T14:04:57.663Z,32.60
2022-08-02T14:07:27.397Z,33.10
2022-08-02T14:09:55.675Z,31.90
2022-08-02T14:12:24.041Z,32.10
2022-08-02T14:14:52.540Z,31.90
2022-08-02T14:17:20.782Z,32.70
2022-08-02T14:19:50.461Z,32.30
2022-08-02T14:22:18.614Z,30.60
2022-08-02T14:24:48.142Z,30.90
2022-08-02T14:27:16.294Z,31.90
2022-08-02T14:29:44.444Z,34.90
2022-08-02T14:32:13.174Z,34.20
2022-08-02T14:34:41.786Z,36.10
2022-08-02T14:37:09.920Z,36.20
2022-08-02T14:39:43.284Z,33.90
2022-08-02T14:42:27.772Z,34.80
2022-08-02T14:44:56.331Z,33.50
2022-08-02T14:47:24.501Z,33.30
2022-08-02T14:49:52.837Z,32.50
2022-08-02T14:52:21.227Z,31.90
2022-08-02T14:54:49.493Z,34.30
2022-08-02T14:57:17.750Z,34.50
2022-08-02T14:59:47.271Z,34.80
2022-08-02T15:02:16.065Z,34.80
2022-08-02T15:04:44.664Z,31.80
2022-08-02T15:07:14.194Z,31.00
2022-08-02T15:09:42.560Z,34.70
2022-08-02T15:12:12.069Z,35.30
2022-08-02T15:17:11.264Z,34.40
2022-08-02T15:22:28.927Z,36.00
2022-08-02T15:24:57.921Z,33.20
2022-08-02T15:27:26.117Z,33.30
2022-08-02T15:29:59.904Z,33.80
2022-08-02T15:32:29.726Z,36.80
2022-08-02T15:34:58.058Z,37.30
2022-08-02T15:37:26.248Z,35.20
2022-08-02T15:40:00.267Z,33.40
2022-08-02T15:42:30.844Z,33.50
2022-08-02T15:45:00.264Z,33.80
2022-08-02T15:47:29.891Z,34.90
2022-08-02T15:49:58.567Z,36.90
2022-08-02T15:52:27.693Z,36.40
2022-08-02T15:54:55.879Z,37.70
2022-08-02T15:57:25.335Z,37.40
2022-08-02T15:59:54.250Z,35.60
2022-08-02T16:02:22.702Z,32.10
2022-08-02T16:04:52.305Z,34.00
2022-08-02T16:07:20.574Z,32.20
2022-08-02T16:09:48.629Z,34.60
2022-08-02T16:12:17.250Z,33.40
2022-08-02T16:14:45.666Z,32.70
2022-08-02T16:17:13.943Z,32.40
2022-08-02T16:20:04.123Z,31.80
2022-08-02T16:22:32.385Z,33.90
2022-08-02T16:25:00.608Z,34.10
2022-08-02T16:27:28.813Z,32.70
2022-08-02T16:29:58.975Z,32.10
2022-08-02T16:32:27.145Z,31.90
2022-08-02T16:35:07.622Z,30.50
2022-08-02T16:37:52.560Z,32.00
2022-08-02T16:40:21.427Z,33.80
2022-08-02T16:45:38.116Z,33.30
2022-08-02T16:48:07.674Z,34.00
2022-08-02T16:50:37.748Z,35.20
2022-08-02T16:53:07.846Z,34.20
2022-08-02T16:55:36.564Z,34.40
2022-08-02T16:58:05.066Z,32.20
2022-08-02T17:00:38.625Z,35.70
2022-08-02T17:03:14.656Z,35.50
2022-08-02T17:05:55.742Z,34.80
2022-08-02T17:08:31.610Z,32.80
2022-08-02T17:11:17.466Z,31.10
2022-08-02T17:13:45.872Z,32.20
2022-08-02T17:16:20.524Z,31.90
2022-08-02T17:18:54.358Z,32.00
2022-08-02T17:21:22.523Z,31.10
2022-08-02T17:24:07.440Z,30.00
2022-08-02T17:26:37.414Z,30.30
2022-08-02T17:29:14.660Z,32.00
2022-08-02T17:32:05.714Z,32.80
2022-08-02T17:34:34.876Z,31.60
2022-08-02T17:37:05.915Z,31.30
2022-08-02T17:39:43.838Z,30.80
2022-08-02T17:42:15.458Z,30.60
2022-08-02T17:44:49.292Z,29.60
2022-08-02T17:47:17.827Z,29.30
2022-08-02T17:49:48.363Z,29.00
2022-08-02T17:52:51.557Z,28.70
2022-08-02T17:55:08.148Z,28.50
2022-08-02T17:57:58.774Z,28.60
2022-08-02T18:00:26.615Z,29.00
2022-08-02T18:02:55.467Z,29.50
2022-08-02T18:05:38.817Z,31.20
2022-08-02T18:08:07.902Z,31.10
2022-08-02T18:10:39.170Z,30.60
2022-08-02T18:13:07.734Z,30.00
2022-08-02T18:15:36.372Z,29.30
2022-08-02T18:18:04.613Z,28.60
2022-08-02T18:20:33.088Z,28.20
2022-08-02T18:23:01.701Z,28.00
2022-08-02T18:25:37.085Z,27.70
2022-08-02T18:28:13.791Z,27.50
2022-08-02T18:30:42.059Z,27.30
2022-08-02T18:33:58.412Z,27.20
2022-08-02T18:35:58.472Z,26.80
2022-08-02T18:38:28.370Z,26.10
2022-08-02T18:40:58.714Z,25.60
2022-08-02T18:43:29.590Z,25.70
2022-08-02T18:46:04.857Z,25.70
2022-08-02T18:48:34.947Z,25.60
2022-08-02T18:51:04.509Z,25.80
2022-08-02T18:53:41.430Z,25.70
2022-08-02T18:56:19.709Z,25.60
2022-08-02T18:58:55.432Z,25.40
2022-08-02T19:01:32.075Z,25.40
2022-08-02T19:04:03.080Z,25.20
2022-08-02T19:06:31.638Z,25.00
2022-08-02T19:09:11.232Z,24.80
2022-08-02T19:11:47.544Z,24.60
2022-08-02T19:14:19.155Z,23.80
2022-08-02T19:16:58.061Z,23.70
2022-08-02T19:19:29.114Z,23.70
2022-08-02T19:22:18.486Z,23.70
2022-08-02T19:24:51.552Z,23.80
2022-08-02T19:27:32.252Z,23.80
2022-08-02T19:30:04.453Z,23.70
2022-08-02T19:32:42.008Z,23.70
2022-08-02T19:35:30.445Z,23.60
2022-08-02T19:38:08.735Z,23.20
2022-08-02T19:40:38.681Z,23.10
2022-08-02T19:44:26.323Z,23.10
2022-08-02T19:45:57.057Z,23.00
2022-08-02T19:48:27.259Z,22.80
2022-08-02T19:51:00.892Z,22.80
2022-08-02T19:53:46.574Z,23.10
2022-08-02T19:56:20.208Z,22.90
2022-08-02T19:58:50.298Z,22.80
2022-08-02T20:01:28.086Z,22.80
2022-08-02T20:04:05.946Z,22.60
2022-08-02T20:06:34.414Z,21.90
2022-08-02T20:09:03.951Z,21.40
2022-08-02T20:11:34.967Z,21.30
2022-08-02T20:14:05.507Z,21.40
2022-08-02T20:16:36.464Z,21.40
2022-08-02T20:19:07.646Z,21.40
2022-08-02T20:21:38.208Z,21.40
2022-08-02T20:24:12.032Z,21.20
2022-08-02T20:26:47.230Z,21.10
2022-08-02T20:29:42.399Z,20.90
2022-08-02T20:32:07.846Z,20.90
2022-08-02T20:34:36.824Z,20.90
2022-08-02T20:38:00.970Z,20.80
2022-08-02T20:39:53.892Z,20.50
2022-08-02T20:42:23.626Z,20.50
2022-08-02T20:44:54.662Z,20.50
2022-08-02T20:47:27.728Z,20.60
2022-08-02T20:50:15.261Z,20.60
2022-08-02T20:52:43.584Z,20.60
2022-08-02T20:55:17.076Z,20.60
2022-08-02T20:58:00.005Z,20.60
2022-08-02T21:00:28.973Z,20.60
2022-08-02T21:02:59.587Z,20.60
2022-08-02T21:05:53.966Z,20.50
2022-08-02T21:08:19.062Z,20.50
2022-08-02T21:10:51.935Z,20.50
2022-08-02T21:13:23.899Z,20.50
2022-08-02T21:15:53.105Z,20.60
2022-08-02T21:18:30.126Z,20.60
2022-08-02T21:21:05.226Z,20.50
2022-08-02T21:23:36.470Z,20.40
2022-08-02T21:26:06.644Z,20.30
2022-08-02T21:28:45.109Z,20.30
2022-08-02T21:31:15.719Z,20.20
2022-08-02T21:33:57.762Z,20.30
2022-08-02T21:36:31.385Z,20.20
2022-08-02T21:39:04.391Z,20.20
2022-08-02T21:44:23.969Z,20.20
2022-08-02T21:46:54.131Z,20.10
2022-08-02T21:49:40.566Z,20.00
2022-08-02T21:52:13.810Z,19.90
2022-08-02T21:54:45.394Z,19.90
2022-08-02T21:57:16.109Z,19.90
2022-08-02T21:59:45.324Z,19.90
2022-08-02T22:02:14.175Z,19.80
2022-08-02T22:04:47.599Z,19.90
2022-08-02T22:07:23.863Z,19.80
2022-08-02T22:09:53.417Z,19.60
2022-08-02T22:12:26.387Z,19.60
2022-08-02T22:14:56.532Z,19.60
2022-08-02T22:17:49.964Z,19.60
2022-08-02T22:20:20.330Z,19.60
2022-08-02T22:22:50.789Z,19.50
2022-08-02T22:25:27.212Z,19.50
2022-08-02T22:28:38.617Z,19.50
2022-08-02T22:30:57.232Z,19.40
2022-08-02T22:33:59.811Z,19.50
2022-08-02T22:36:31.325Z,19.40
2022-08-02T22:39:00.510Z,19.20
2022-08-02T22:44:18.797Z,18.80
2022-08-02T22:47:14.473Z,18.60
2022-08-02T22:52:33.868Z,18.50
2022-08-02T22:55:04.381Z,18.60
2022-08-02T22:57:32.487Z,18.50
2022-08-02T22:58:34.384Z,33.50
2022-08-02T22:59:03.342Z,20.10
2022-08-02T22:59:09.693Z,19.00
2022-08-02T22:59:09.955Z,18.50
2022-08-02T23:00:01.396Z,18.40
2022-08-02T23:02:29.975Z,18.40
2022-08-02T23:04:58.510Z,18.60
2022-08-02T23:07:26.721Z,18.50
2022-08-02T23:09:56.352Z,18.60
2022-08-02T23:12:24.807Z,18.50
2022-08-02T23:14:53.668Z,18.50
2022-08-02T23:17:39.275Z,18.50
2022-08-02T23:20:10.465Z,18.60
2022-08-02T23:22:39.203Z,18.60
2022-08-02T23:25:09.716Z,18.60
2022-08-02T23:27:38.095Z,18.50
2022-08-02T23:30:08.162Z,18.50
2022-08-02T23:32:36.378Z,18.40
2022-08-02T23:35:05.889Z,18.30
2022-08-02T23:37:59.438Z,18.40
2022-08-02T23:40:39.105Z,18.40
2022-08-02T23:43:13.843Z,18.30
2022-08-02T23:45:45.218Z,18.30
2022-08-02T23:48:13.518Z,18.20
2022-08-02T23:50:41.800Z,18.30
2022-08-02T23:53:09.958Z,18.20
2022-08-02T23:55:39.501Z,18.20
2022-08-02T23:58:07.698Z,18.10
